IPT weather

Williamsport Regional Airport
Williamsport, Pennsylvania, United States

Public forecast

Using degrees Fahrenheit for public forecast. Weather courtesy of forecast.io.

Current aviation weather report (METAR) for Williamsport Regional Airport

Retrieved 2020/01/24 12:54 UTC (30 minutes ago):

KIPT 241254Z 09004KT 7SM CLR M04/M07 A3032 RMK AO2 SLP276 T10391072

Aviation forecast (TAF) for Williamsport Regional Airport

Retrieved 2020/01/24 12:39 UTC (45 minutes ago):

TAF KIPT 241137Z 2412/2512 00000KT P6SM OVC150 FM241300 09003KT P6SM BKN030 FM241500 08007KT P6SM BKN050 FM250400 10006KT P6SM OVC025 FM250900 10008KT 1 1/2SM -RA BR OVC003